Time;durP1;ratioP1;P1;durP2;ratioP2;P2;SDS_P1;SDS_P2;PMS_P1;PMS_P2;Temp;Humidity;BMP_temperature;BMP_pressure;BME280_temperature;BME280_humidity;BME280_pressure;Samples;Min_cycle;Max_cycle;Signal;HPM_P1;HPM_P2
2022/01/17 00:00:34;;;;;;;18.20;3.10;;;5.90;99.90;;;;;;4991094;28;20057;-83
2022/01/17 00:03:00;;;;;;;15.57;3.80;;;6.00;99.90;;;;;;4990980;28;20073;-84
2022/01/17 00:05:26;;;;;;;13.77;3.50;;;5.80;99.90;;;;;;4957774;28;20062;-83
2022/01/17 00:07:52;;;;;;;15.43;2.45;;;5.70;99.90;;;;;;4957536;28;20046;-82
2022/01/17 00:10:17;;;;;;;21.38;3.83;;;5.20;99.90;;;;;;4973616;28;20043;-82
2022/01/17 00:12:45;;;;;;;20.65;3.50;;;5.60;99.90;;;;;;4941192;28;20050;-83
2022/01/17 00:15:28;;;;;;;17.23;2.53;;;5.60;99.90;;;;;;4973802;28;20415;-83
2022/01/17 00:18:21;;;;;;;15.88;3.47;;;5.50;99.90;;;;;;4990425;28;20054;-84
2022/01/17 00:20:40;;;;;;;19.45;3.22;;;5.50;99.90;;;;;;4959688;28;20514;-84
2022/01/17 00:23:06;;;;;;;21.17;4.10;;;5.30;99.90;;;;;;4957181;28;20492;-83
2022/01/17 00:25:31;;;;;;;31.58;4.10;;;5.30;99.90;;;;;;4973204;28;20057;-83
2022/01/17 00:27:57;;;;;;;15.45;2.88;;;5.20;99.90;;;;;;4990046;28;20050;-82
2022/01/17 00:30:23;;;;;;;18.10;2.53;;;5.20;99.90;;;;;;4990496;28;20055;-83
2022/01/17 00:32:48;;;;;;;22.58;3.28;;;5.20;99.90;;;;;;4990001;28;20058;-82
2022/01/17 00:35:15;;;;;;;16.52;2.90;;;5.20;99.90;;;;;;4990587;28;20058;-84
2022/01/17 00:37:41;;;;;;;16.95;3.25;;;5.90;99.90;;;;;;4973119;28;20053;-82
2022/01/17 00:40:08;;;;;;;18.10;3.33;;;5.40;99.90;;;;;;4956843;28;20121;-81
2022/01/17 00:42:33;;;;;;;17.38;3.08;;;5.40;99.90;;;;;;4972738;28;20050;-82
2022/01/17 00:45:02;;;;;;;20.00;3.58;;;5.80;99.90;;;;;;4989726;28;20466;-81
2022/01/17 00:47:27;;;;;;;26.10;3.78;;;5.30;99.90;;;;;;4972897;28;20546;-81
2022/01/17 00:49:53;;;;;;;23.65;2.90;;;6.00;99.90;;;;;;4990189;28;20081;-83
2022/01/17 00:52:19;;;;;;;25.50;3.42;;;5.40;99.90;;;;;;4990274;28;20073;-82
2022/01/17 00:54:44;;;;;;;16.95;3.63;;;5.40;99.90;;;;;;4973198;28;20133;-83
2022/01/17 00:57:10;;;;;;;18.20;3.35;;;5.30;99.90;;;;;;4989882;28;20050;-82
2022/01/17 00:59:36;;;;;;;19.50;3.03;;;5.40;99.90;;;;;;4990273;28;20511;-82
2022/01/17 01:02:02;;;;;;;19.75;2.90;;;5.80;99.90;;;;;;4972630;28;20078;-83
2022/01/17 01:04:27;;;;;;;21.48;2.90;;;5.50;99.90;;;;;;4972963;28;20476;-83
2022/01/17 01:06:53;;;;;;;13.05;2.50;;;5.50;99.90;;;;;;4972434;28;20046;-82
2022/01/17 01:09:19;;;;;;;20.52;3.15;;;5.80;99.90;;;;;;4990151;28;20042;-81
2022/01/17 01:11:44;;;;;;;19.75;2.60;;;5.60;99.90;;;;;;4989874;28;20053;-82
2022/01/17 01:14:10;;;;;;;18.63;2.85;;;5.60;99.90;;;;;;4972064;28;20120;-82
2022/01/17 01:16:37;;;;;;;17.13;3.30;;;5.50;99.90;;;;;;4989795;28;20050;-83
2022/01/17 01:29:45;;;;;;;18.42;3.58;;;5.50;99.90;;;;;;4989665;28;20504;-82
2022/01/17 01:32:12;;;;;;;15.27;2.78;;;5.50;99.90;;;;;;4989418;28;20050;-81
2022/01/17 01:34:45;;;;;;;15.35;3.13;;;5.50;99.90;;;;;;4972410;28;20099;-83
2022/01/17 01:37:12;;;;;;;23.53;4.00;;;5.60;99.90;;;;;;4971807;28;20046;-82
2022/01/17 01:39:38;;;;;;;13.75;2.67;;;5.60;99.90;;;;;;4972567;28;20061;-82
2022/01/17 01:42:05;;;;;;;19.90;3.03;;;6.30;99.90;;;;;;4956151;28;20042;-82
2022/01/17 01:44:31;;;;;;;16.42;2.60;;;5.60;99.90;;;;;;4989320;28;20066;-83
2022/01/17 01:46:57;;;;;;;16.60;2.85;;;5.60;99.90;;;;;;4989028;28;20105;-83
2022/01/17 01:49:23;;;;;;;22.33;4.00;;;5.60;99.90;;;;;;4989443;28;20046;-82
2022/01/17 01:51:49;;;;;;;19.30;3.00;;;5.60;99.90;;;;;;4972053;28;20046;-81
2022/01/17 01:54:14;;;;;;;15.10;2.47;;;5.60;99.90;;;;;;4988348;28;20095;-83
2022/01/17 01:56:43;;;;;;;16.45;3.35;;;5.60;99.90;;;;;;4989149;28;20133;-82
2022/01/17 01:59:09;;;;;;;18.67;3.00;;;5.60;99.90;;;;;;4971861;28;20100;-83
2022/01/17 02:01:34;;;;;;;20.15;3.72;;;5.60;99.90;;;;;;4971945;28;20046;-83
2022/01/17 02:04:00;;;;;;;17.27;2.85;;;5.50;99.90;;;;;;4972026;28;20051;-84
2022/01/17 02:06:26;;;;;;;23.17;3.03;;;5.50;99.90;;;;;;4971720;28;20050;-84
2022/01/17 02:08:52;;;;;;;19.55;3.13;;;5.80;99.90;;;;;;4989252;28;20081;-84
2022/01/17 02:11:17;;;;;;;17.10;2.88;;;6.20;99.90;;;;;;4971515;28;20069;-86
2022/01/17 02:13:43;;;;;;;19.17;3.38;;;5.50;99.90;;;;;;4989130;28;20096;-84
2022/01/17 02:16:12;;;;;;;17.42;2.85;;;5.50;99.90;;;;;;4971370;28;20486;-81
2022/01/17 02:18:38;;;;;;;13.43;2.63;;;5.40;99.90;;;;;;4956165;28;20164;-82
2022/01/17 02:23:36;;;;;;;17.40;2.85;;;5.40;99.90;;;;;;4988826;28;20456;-81
2022/01/17 02:26:01;;;;;;;21.05;3.63;;;5.40;99.90;;;;;;4988676;28;20056;-91
2022/01/17 02:28:27;;;;;;;19.30;3.70;;;5.30;99.90;;;;;;4971769;28;20062;-83
2022/01/17 02:30:53;;;;;;;17.70;2.88;;;5.30;99.90;;;;;;4971562;28;20076;-85
2022/01/17 02:33:19;;;;;;;15.35;3.08;;;5.20;99.90;;;;;;4971007;28;20065;-83
2022/01/17 02:35:48;;;;;;;23.42;3.55;;;5.20;99.90;;;;;;4939785;28;20090;-82
2022/01/17 02:38:14;;;;;;;20.08;4.07;;;5.50;99.90;;;;;;4955239;28;20089;-83
2022/01/17 02:40:39;;;;;;;17.85;3.40;;;5.50;99.90;;;;;;4971481;28;20498;-83
2022/01/17 02:43:07;;;;;;;18.48;3.10;;;5.10;99.90;;;;;;4988480;28;20042;-83
2022/01/17 02:48:04;;;;;;;23.63;4.10;;;5.10;99.90;;;;;;4969236;28;20050;-82
2022/01/17 02:50:29;;;;;;;23.27;5.00;;;5.20;99.90;;;;;;4969525;28;20082;-83
2022/01/17 02:53:01;;;;;;;14.93;2.70;;;5.20;99.90;;;;;;4968189;28;20051;-85
2022/01/17 02:55:28;;;;;;;20.35;3.05;;;5.70;99.90;;;;;;4952159;28;20073;-83
2022/01/17 02:57:54;;;;;;;31.02;5.10;;;5.10;99.90;;;;;;4952394;28;20062;-86
2022/01/17 03:00:19;;;;;;;18.33;2.50;;;5.10;99.90;;;;;;4968725;28;20047;-84
2022/01/17 03:02:48;;;;;;;20.27;2.92;;;5.20;99.90;;;;;;4969182;28;20049;-82
2022/01/17 03:05:17;;;;;;;23.30;3.22;;;5.10;99.90;;;;;;4969715;28;20135;-85
2022/01/17 03:07:44;;;;;;;18.65;3.17;;;5.10;99.90;;;;;;4971507;28;20057;-83
2022/01/17 03:10:18;;;;;;;20.10;3.13;;;5.00;99.90;;;;;;4939237;28;20488;-82
2022/01/17 03:12:44;;;;;;;24.80;4.75;;;5.10;99.90;;;;;;4972537;28;20055;-84
2022/01/17 03:15:12;;;;;;;21.13;3.28;;;5.10;99.90;;;;;;4955021;28;20050;-83
2022/01/17 03:17:38;;;;;;;26.70;5.07;;;5.10;99.90;;;;;;4972384;28;20464;-83
2022/01/17 03:20:04;;;;;;;24.45;4.20;;;5.20;99.90;;;;;;4971384;28;20129;-83
2022/01/17 03:22:30;;;;;;;20.35;3.22;;;5.10;99.90;;;;;;4970898;28;20054;-84
2022/01/17 03:24:55;;;;;;;30.17;3.30;;;5.10;99.90;;;;;;4971105;28;20454;-83
2022/01/17 03:27:21;;;;;;;18.77;3.45;;;5.10;99.90;;;;;;4970500;28;20043;-83
2022/01/17 03:29:47;;;;;;;21.50;3.28;;;5.10;99.90;;;;;;4971051;28;20062;-82
2022/01/17 03:32:12;;;;;;;20.55;3.15;;;5.10;99.90;;;;;;4971974;28;20046;-83
2022/01/17 03:34:39;;;;;;;23.35;3.58;;;5.40;99.90;;;;;;4970981;28;20503;-82
2022/01/17 03:37:05;;;;;;;18.63;3.63;;;5.20;99.90;;;;;;4955222;28;20057;-84
2022/01/17 03:39:31;;;;;;;22.45;3.10;;;5.20;99.90;;;;;;4938939;28;20047;-83
2022/01/17 03:41:56;;;;;;;20.60;3.92;;;6.10;99.90;;;;;;4971813;28;20069;-82
2022/01/17 03:44:22;;;;;;;21.30;3.35;;;5.30;99.90;;;;;;4973714;28;20062;-82
2022/01/17 03:46:48;;;;;;;24.05;4.05;;;5.30;99.90;;;;;;4974350;28;20057;-82
2022/01/17 03:49:13;;;;;;;24.55;3.20;;;5.30;99.90;;;;;;4973990;28;20046;-89
2022/01/17 03:51:39;;;;;;;13.82;2.85;;;5.30;99.90;;;;;;4974143;28;20133;-83
2022/01/17 03:54:06;;;;;;;19.17;3.00;;;5.40;99.90;;;;;;4991355;28;20046;-83
2022/01/17 03:56:32;;;;;;;15.48;3.17;;;5.40;99.90;;;;;;4957777;28;20054;-84
2022/01/17 03:58:57;;;;;;;20.40;3.53;;;5.40;99.90;;;;;;4973668;28;20053;-84
2022/01/17 04:01:23;;;;;;;20.08;4.10;;;5.40;99.90;;;;;;4973291;28;20042;-83
2022/01/17 04:03:49;;;;;;;20.48;3.33;;;5.80;99.90;;;;;;4991156;28;20043;-83
2022/01/17 04:06:15;;;;;;;25.40;4.57;;;5.40;99.90;;;;;;4991526;28;20484;-84
2022/01/17 04:08:41;;;;;;;17.77;3.50;;;5.40;99.90;;;;;;4957820;28;20065;-84
2022/01/17 04:11:07;;;;;;;20.45;3.17;;;5.50;99.90;;;;;;4973665;28;20457;-84
2022/01/17 04:13:34;;;;;;;17.42;2.63;;;5.50;99.90;;;;;;4990260;28;20058;-83
2022/01/17 04:15:59;;;;;;;22.13;3.03;;;5.50;99.90;;;;;;4973463;28;20058;-83
2022/01/17 04:18:25;;;;;;;13.35;2.80;;;5.50;99.90;;;;;;4989552;28;20111;-85
2022/01/17 04:20:51;;;;;;;19.73;3.05;;;5.70;99.90;;;;;;4973862;28;20050;-83
2022/01/17 04:23:18;;;;;;;18.20;2.67;;;5.50;99.90;;;;;;4957624;28;20512;-83
2022/01/17 04:25:44;;;;;;;21.85;3.72;;;5.40;99.90;;;;;;4991188;28;20380;-82
2022/01/17 04:28:10;;;;;;;20.08;3.38;;;5.30;99.90;;;;;;4973589;28;20055;-83
2022/01/17 04:30:36;;;;;;;16.85;2.70;;;5.40;99.90;;;;;;4990686;28;20054;-85
2022/01/17 04:33:02;;;;;;;17.63;2.90;;;5.40;99.90;;;;;;4990900;28;20045;-84
2022/01/17 04:35:28;;;;;;;16.08;2.65;;;5.80;99.90;;;;;;4957264;28;20046;-83
2022/01/17 04:37:56;;;;;;;12.30;2.50;;;5.40;99.90;;;;;;4991397;28;20054;-83
2022/01/17 04:40:22;;;;;;;17.20;3.08;;;5.30;99.90;;;;;;4973514;28;20166;-84
2022/01/17 04:42:49;;;;;;;18.50;3.28;;;5.40;99.90;;;;;;4973593;28;20129;-84
2022/01/17 04:45:18;;;;;;;19.83;2.63;;;5.40;99.90;;;;;;4973337;28;20056;-84
2022/01/17 04:47:47;;;;;;;19.38;3.10;;;5.50;99.90;;;;;;4973319;28;20415;-82
2022/01/17 04:50:39;;;;;;;19.10;3.08;;;5.50;99.90;;;;;;4957745;28;20199;-84
2022/01/17 04:53:06;;;;;;;13.15;2.72;;;5.60;99.90;;;;;;4990460;28;20142;-83
2022/01/17 04:55:33;;;;;;;12.60;2.97;;;5.60;99.90;;;;;;4990192;28;20519;-84
2022/01/17 04:57:59;;;;;;;16.27;2.83;;;5.60;99.90;;;;;;4990538;28;20419;-83
2022/01/17 05:00:26;;;;;;;21.40;3.15;;;5.70;99.90;;;;;;4957111;28;20054;-84
2022/01/17 05:02:51;;;;;;;18.85;3.50;;;5.80;99.90;;;;;;4990366;28;20380;-83
2022/01/17 05:05:17;;;;;;;16.63;3.22;;;5.80;99.90;;;;;;4973047;28;20139;-84
2022/01/17 05:07:43;;;;;;;19.23;3.67;;;5.80;99.90;;;;;;4956832;28;20054;-83
2022/01/17 05:10:10;;;;;;;22.50;3.15;;;5.90;99.90;;;;;;4973233;28;20399;-84
2022/01/17 05:12:36;;;;;;;14.15;2.80;;;5.90;99.90;;;;;;4990049;28;20050;-82
2022/01/17 05:15:04;;;;;;;14.43;2.67;;;5.90;99.90;;;;;;4973075;28;20057;-83
2022/01/17 05:19:59;;;;;;;21.00;3.17;;;6.50;99.90;;;;;;4990028;28;20146;-84
2022/01/17 05:22:31;;;;;;;19.77;3.00;;;6.00;99.90;;;;;;4972987;28;20117;-83
2022/01/17 05:24:57;;;;;;;19.50;3.58;;;6.10;99.90;;;;;;4990446;28;20330;-83
2022/01/17 05:27:23;;;;;;;15.70;2.70;;;6.00;99.90;;;;;;4973116;28;20112;-83
2022/01/17 05:29:49;;;;;;;17.75;3.38;;;6.00;99.90;;;;;;4972456;28;20046;-83
2022/01/17 05:32:14;;;;;;;18.10;3.15;;;6.00;99.90;;;;;;4990057;28;20093;-83
2022/01/17 05:34:41;;;;;;;19.20;3.33;;;6.00;99.90;;;;;;4972223;28;20130;-83
2022/01/17 05:37:10;;;;;;;18.75;3.47;;;6.10;99.90;;;;;;4972667;28;20057;-83
2022/01/17 05:39:37;;;;;;;20.80;3.50;;;6.20;99.90;;;;;;4956661;28;20054;-81
2022/01/17 05:42:03;;;;;;;19.27;3.63;;;6.20;99.90;;;;;;4972950;28;20415;-83
2022/01/17 05:44:29;;;;;;;15.80;3.35;;;6.20;99.90;;;;;;4972556;28;20062;-83
2022/01/17 05:46:55;;;;;;;15.80;3.45;;;6.20;99.90;;;;;;4972508;28;20061;-83
2022/01/17 05:49:20;;;;;;;16.85;3.20;;;6.20;99.90;;;;;;4989824;28;20046;-85
2022/01/17 05:51:46;;;;;;;17.55;3.63;;;6.20;99.90;;;;;;4972012;28;20133;-82
2022/01/17 05:54:12;;;;;;;21.80;3.83;;;6.30;99.90;;;;;;4972327;28;20057;-83
2022/01/17 05:56:37;;;;;;;21.17;3.70;;;6.30;99.90;;;;;;4956196;28;20061;-83
2022/01/17 05:59:03;;;;;;;25.02;4.03;;;6.90;99.90;;;;;;4956749;28;20051;-83
2022/01/17 06:01:28;;;;;;;23.25;4.22;;;6.30;99.90;;;;;;4972187;28;20057;-82
2022/01/17 06:03:54;;;;;;;24.63;4.68;;;6.30;99.90;;;;;;4955967;28;20050;-82
2022/01/17 06:06:23;;;;;;;18.67;4.05;;;6.40;99.90;;;;;;4972458;28;20088;-82
2022/01/17 06:08:48;;;;;;;23.63;4.13;;;6.40;99.90;;;;;;4989506;28;20042;-82
2022/01/17 06:11:14;;;;;;;21.58;4.00;;;6.40;99.90;;;;;;4971914;28;20150;-82
2022/01/17 06:13:40;;;;;;;24.70;4.20;;;6.40;99.90;;;;;;4988866;28;20108;-85
2022/01/17 06:16:05;;;;;;;22.80;4.38;;;6.70;99.90;;;;;;4989329;28;20061;-84
2022/01/17 06:18:31;;;;;;;25.60;3.88;;;6.80;99.90;;;;;;4989233;28;20491;-85
2022/01/17 06:20:57;;;;;;;25.10;4.93;;;6.40;99.90;;;;;;4989178;28;20050;-83
2022/01/17 06:23:24;;;;;;;21.38;4.88;;;6.70;99.90;;;;;;4989197;28;20377;-84
2022/01/17 06:25:50;;;;;;;22.92;5.05;;;6.40;99.90;;;;;;4971559;28;20056;-84
2022/01/17 06:28:15;;;;;;;23.65;5.22;;;6.90;99.90;;;;;;4988376;28;20058;-87
2022/01/17 06:30:41;;;;;;;29.13;5.22;;;6.40;99.90;;;;;;4989426;28;20046;-84
2022/01/17 06:33:07;;;;;;;25.58;4.47;;;6.40;99.90;;;;;;4972849;28;20462;-82
2022/01/17 06:35:33;;;;;;;20.30;3.88;;;6.50;99.90;;;;;;4989873;28;20047;-83
2022/01/17 06:37:58;;;;;;;19.00;5.22;;;6.50;99.90;;;;;;4956516;28;20050;-82
2022/01/17 06:40:24;;;;;;;27.15;4.80;;;6.50;99.90;;;;;;4972340;28;20206;-83
2022/01/17 06:42:50;;;;;;;25.05;4.55;;;6.30;99.90;;;;;;4989589;28;20042;-82
2022/01/17 06:45:18;;;;;;;24.05;4.88;;;6.40;99.90;;;;;;4989749;28;20066;-82
2022/01/17 06:47:44;;;;;;;22.73;4.00;;;6.40;99.90;;;;;;4989354;28;20527;-83
2022/01/17 06:50:10;;;;;;;29.35;5.30;;;6.40;99.90;;;;;;4940789;28;20054;-83
2022/01/17 06:52:35;;;;;;;32.40;5.45;;;6.40;99.90;;;;;;4940875;28;20047;-83
2022/01/17 06:55:01;;;;;;;29.42;4.90;;;6.30;99.90;;;;;;4989254;28;20503;-83
2022/01/17 06:57:27;;;;;;;34.15;5.47;;;6.30;99.90;;;;;;4972556;28;20701;-83
2022/01/17 06:59:52;;;;;;;28.60;5.15;;;6.40;99.90;;;;;;4971805;28;20135;-83
2022/01/17 07:02:18;;;;;;;23.10;4.47;;;6.30;99.90;;;;;;4940058;28;20093;-83
2022/01/17 07:04:44;;;;;;;33.78;5.25;;;6.20;99.90;;;;;;4989073;28;20076;-89
2022/01/17 07:07:10;;;;;;;25.08;4.53;;;6.30;99.90;;;;;;4989081;28;20054;-82
2022/01/17 07:09:36;;;;;;;22.88;5.90;;;6.30;99.90;;;;;;4989156;28;20143;-83
2022/01/17 07:12:05;;;;;;;38.20;5.63;;;6.30;99.90;;;;;;4971294;28;20501;-83
2022/01/17 07:14:31;;;;;;;29.83;5.70;;;6.30;99.90;;;;;;4971912;28;20571;-82
2022/01/17 07:16:57;;;;;;;27.17;5.90;;;6.30;99.90;;;;;;4971358;28;20203;-84
2022/01/17 07:19:23;;;;;;;29.45;5.95;;;6.30;99.90;;;;;;4971523;28;20121;-83
2022/01/17 07:21:50;;;;;;;30.70;5.95;;;6.30;99.90;;;;;;4939332;28;20115;-83
2022/01/17 07:24:15;;;;;;;28.77;6.85;;;6.30;99.90;;;;;;4971752;28;20050;-83
2022/01/17 07:26:41;;;;;;;24.75;4.90;;;6.50;99.90;;;;;;4987825;28;20624;-83
2022/01/17 07:29:08;;;;;;;32.00;5.50;;;6.40;99.90;;;;;;4987190;28;20042;-83
2022/01/17 07:31:34;;;;;;;30.08;6.43;;;6.40;99.90;;;;;;4987700;28;20054;-84
2022/01/17 07:34:00;;;;;;;30.50;6.05;;;6.40;99.90;;;;;;4986952;28;20049;-83
2022/01/17 07:36:26;;;;;;;28.90;6.28;;;6.50;99.90;;;;;;4970420;28;20399;-84
2022/01/17 07:38:54;;;;;;;38.20;5.93;;;6.50;99.90;;;;;;4969904;28;20560;-83
2022/01/17 07:41:20;;;;;;;29.30;5.25;;;6.10;99.90;;;;;;4987624;28;20488;-83
2022/01/17 07:43:47;;;;;;;29.45;5.55;;;6.50;99.90;;;;;;4987535;28;20061;-82
2022/01/17 07:46:23;;;;;;;38.38;6.32;;;6.50;99.90;;;;;;4987226;28;20123;-83
2022/01/17 07:49:04;;;;;;;28.15;5.43;;;6.50;99.90;;;;;;4970342;28;20081;-87
2022/01/17 07:51:30;;;;;;;31.60;5.60;;;6.50;99.90;;;;;;4972638;28;20054;-83
2022/01/17 07:53:56;;;;;;;33.95;6.20;;;7.50;99.90;;;;;;4989928;28;20099;-83
2022/01/17 07:56:23;;;;;;;34.25;6.03;;;6.60;99.90;;;;;;4990899;28;20053;-83
2022/01/17 07:58:48;;;;;;;32.60;5.20;;;6.60;99.90;;;;;;4957210;28;20464;-84
2022/01/17 08:01:14;;;;;;;33.70;5.30;;;6.60;99.90;;;;;;4972621;28;20141;-84
2022/01/17 08:03:40;;;;;;;40.78;5.38;;;6.70;99.90;;;;;;4990645;28;20042;-84
2022/01/17 08:06:05;;;;;;;33.83;5.28;;;6.60;99.90;;;;;;4956731;28;20411;-83
2022/01/17 08:08:31;;;;;;;41.22;5.50;;;6.70;99.90;;;;;;4990539;28;20449;-83
2022/01/17 08:10:57;;;;;;;37.10;6.03;;;6.70;99.90;;;;;;4972987;28;20177;-82
2022/01/17 08:13:22;;;;;;;34.15;6.38;;;6.80;99.90;;;;;;4973058;28;20123;-83
2022/01/17 08:15:48;;;;;;;33.63;5.28;;;6.80;99.90;;;;;;4973245;28;20065;-83
2022/01/17 08:18:14;;;;;;;34.65;5.05;;;6.80;99.90;;;;;;4990004;28;20230;-84
2022/01/17 08:20:40;;;;;;;28.58;5.32;;;6.70;99.90;;;;;;4973011;28;20062;-84
2022/01/17 08:23:07;;;;;;;34.78;5.30;;;6.80;99.90;;;;;;4972780;28;20052;-84
2022/01/17 08:25:33;;;;;;;41.63;7.07;;;6.80;99.90;;;;;;4990092;28;20081;-84
2022/01/17 08:27:59;;;;;;;35.40;5.68;;;6.70;99.90;;;;;;4956416;28;20066;-84
2022/01/17 08:30:25;;;;;;;34.88;5.65;;;6.80;99.90;;;;;;4990052;28;20372;-84
2022/01/17 08:32:51;;;;;;;37.35;5.82;;;6.80;99.90;;;;;;4990143;28;20061;-84
2022/01/17 08:35:20;;;;;;;43.80;6.45;;;6.80;99.90;;;;;;4972521;28;20156;-83
2022/01/17 08:37:45;;;;;;;32.83;5.68;;;6.90;99.90;;;;;;4990106;28;20471;-84
2022/01/17 08:40:11;;;;;;;36.05;6.50;;;6.90;99.90;;;;;;4972088;28;20062;-84
2022/01/17 08:42:37;;;;;;;30.95;4.85;;;6.80;99.90;;;;;;4972619;28;20129;-84
2022/01/17 08:45:10;;;;;;;32.90;4.95;;;6.90;99.90;;;;;;4971805;28;20073;-83
2022/01/17 08:47:36;;;;;;;38.80;7.20;;;6.90;99.90;;;;;;4990001;28;20460;-83
2022/01/17 08:50:03;;;;;;;37.38;5.80;;;7.00;99.90;;;;;;4971836;28;20050;-85
2022/01/17 08:52:29;;;;;;;30.45;5.03;;;6.90;99.90;;;;;;4989704;28;20412;-84
2022/01/17 08:54:55;;;;;;;38.72;6.05;;;6.90;99.90;;;;;;4972123;28;20058;-85
2022/01/17 08:57:20;;;;;;;36.67;5.63;;;6.90;99.90;;;;;;4989085;28;20549;-84
2022/01/17 08:59:46;;;;;;;36.25;5.53;;;7.00;99.90;;;;;;4989586;28;20259;-85
2022/01/17 09:02:12;;;;;;;32.67;5.03;;;7.00;99.90;;;;;;4972091;28;20437;-83
2022/01/17 09:04:40;;;;;;;35.50;5.80;;;7.10;99.90;;;;;;4972116;28;20103;-84
2022/01/17 09:07:10;;;;;;;42.08;6.40;;;7.10;99.90;;;;;;4989140;28;20490;-84
2022/01/17 09:09:37;;;;;;;32.22;5.10;;;7.10;99.90;;;;;;4972423;28;20161;-85
2022/01/17 09:12:04;;;;;;;39.13;5.30;;;7.10;99.90;;;;;;4988767;28;20043;-86
2022/01/17 09:14:29;;;;;;;33.13;5.15;;;7.20;99.90;;;;;;4989551;28;20042;-83
2022/01/17 09:16:55;;;;;;;47.38;6.65;;;7.30;99.90;;;;;;4989879;28;20095;-83
2022/01/17 09:19:21;;;;;;;33.85;4.63;;;7.30;99.90;;;;;;4971357;28;20100;-84
2022/01/17 09:21:46;;;;;;;35.90;5.80;;;7.40;99.90;;;;;;4989246;28;20050;-84
2022/01/17 09:24:12;;;;;;;47.00;7.00;;;7.50;99.90;;;;;;4955381;28;20571;-84
2022/01/17 09:26:38;;;;;;;45.75;5.53;;;7.60;99.90;;;;;;4989778;28;20092;-84
2022/01/17 09:29:04;;;;;;;37.17;6.25;;;7.60;99.90;;;;;;4972759;28;20053;-87
2022/01/17 09:31:30;;;;;;;38.15;5.55;;;7.70;99.90;;;;;;4973523;28;20510;-83
2022/01/17 09:33:55;;;;;;;34.63;5.53;;;7.80;99.90;;;;;;4956459;28;20038;-83
2022/01/17 09:36:21;;;;;;;35.17;5.28;;;7.90;99.90;;;;;;4988640;28;20203;-85
2022/01/17 09:38:47;;;;;;;42.13;7.25;;;8.00;99.90;;;;;;4989504;28;20450;-84
2022/01/17 09:41:12;;;;;;;30.38;5.45;;;8.20;99.90;;;;;;4971034;28;20070;-84
2022/01/17 09:43:38;;;;;;;34.85;6.18;;;8.40;99.90;;;;;;4989312;28;20073;-85
2022/01/17 09:46:05;;;;;;;37.78;5.90;;;8.50;99.90;;;;;;4955422;28;20058;-87
2022/01/17 09:48:36;;;;;;;34.35;7.00;;;8.50;99.90;;;;;;4955888;28;20070;-84
2022/01/17 09:51:14;;;;;;;39.45;5.07;;;8.50;99.90;;;;;;4971878;28;20184;-84
2022/01/17 09:53:40;;;;;;;30.63;5.93;;;8.60;99.90;;;;;;4989295;28;20096;-83
2022/01/17 09:56:09;;;;;;;47.90;7.82;;;8.60;99.90;;;;;;4955616;28;20134;-86
2022/01/17 09:58:36;;;;;;;31.27;5.68;;;8.70;99.90;;;;;;4989071;28;20073;-83
2022/01/17 10:01:03;;;;;;;40.80;6.72;;;8.80;99.90;;;;;;4989103;28;20042;-84
2022/01/17 10:03:29;;;;;;;38.13;5.13;;;8.80;99.90;;;;;;4971266;28;20047;-83
2022/01/17 10:05:55;;;;;;;37.05;5.90;;;8.90;99.90;;;;;;4971653;28;20052;-83
2022/01/17 10:08:21;;;;;;;33.95;6.22;;;8.90;99.90;;;;;;4988003;28;20082;-82
2022/01/17 10:10:50;;;;;;;41.60;7.03;;;8.90;99.90;;;;;;4955418;28;20076;-82
2022/01/17 10:13:24;;;;;;;36.13;5.72;;;8.90;99.90;;;;;;4988001;28;20047;-83
2022/01/17 10:16:09;;;;;;;28.10;5.75;;;8.90;99.90;;;;;;4970485;28;20092;-83
2022/01/17 10:18:51;;;;;;;47.78;7.38;;;8.90;99.90;;;;;;4971656;28;20061;-84
2022/01/17 10:21:42;;;;;;;36.97;6.50;;;9.00;99.90;;;;;;4956491;28;20054;-85
2022/01/17 10:24:22;;;;;;;41.92;7.15;;;9.10;99.90;;;;;;4971953;28;20144;-84
2022/01/17 10:27:04;;;;;;;33.13;6.45;;;9.10;99.90;;;;;;4956300;28;20129;-83
2022/01/17 10:30:11;;;;;;;43.72;6.55;;;9.30;99.90;;;;;;4956964;28;20131;-85
2022/01/17 10:35:24;;;;;;;40.92;7.78;;;9.20;99.90;;;;;;4957591;28;20058;-85
2022/01/17 10:38:02;;;;;;;41.63;8.07;;;9.30;99.90;;;;;;4988345;28;20058;-84
2022/01/17 10:40:30;;;;;;;37.80;7.80;;;9.30;99.90;;;;;;4952703;28;20101;-84
2022/01/17 10:42:58;;;;;;;44.22;6.97;;;9.30;99.90;;;;;;4953827;28;20442;-85
2022/01/17 10:45:29;;;;;;;46.53;7.65;;;9.30;99.90;;;;;;4954605;28;20100;-85
2022/01/17 10:47:56;;;;;;;38.97;6.32;;;9.30;99.90;;;;;;4971134;28;20054;-86
2022/01/17 10:50:26;;;;;;;40.72;7.07;;;9.40;99.90;;;;;;4938593;28;20043;-84
2022/01/17 10:53:00;;;;;;;41.85;6.65;;;9.30;99.90;;;;;;4985814;28;20049;-85
2022/01/17 10:55:30;;;;;;;40.85;8.23;;;9.40;99.90;;;;;;4970371;28;20049;-84
2022/01/17 10:58:02;;;;;;;46.30;8.75;;;9.60;99.90;;;;;;4939457;28;20050;-85
2022/01/17 11:00:33;;;;;;;32.97;6.38;;;9.50;99.90;;;;;;4954402;28;20103;-85
2022/01/17 11:03:00;;;;;;;46.67;7.50;;;9.40;99.90;;;;;;4954741;28;20515;-86
2022/01/17 11:05:28;;;;;;;46.47;7.28;;;9.50;99.90;;;;;;4954402;28;20043;-84
2022/01/17 11:07:55;;;;;;;46.85;7.72;;;9.60;99.90;;;;;;4988008;28;20518;-85
2022/01/17 11:10:29;;;;;;;41.70;7.63;;;9.50;99.90;;;;;;4970566;28;20399;-84
2022/01/17 11:12:56;;;;;;;47.77;7.40;;;9.40;99.90;;;;;;4987619;28;20670;-83
2022/01/17 11:15:22;;;;;;;49.80;8.10;;;9.30;99.90;;;;;;4987579;28;20050;-85
2022/01/17 11:17:51;;;;;;;48.83;7.60;;;9.40;99.90;;;;;;4954624;28;20054;-84
2022/01/17 11:20:19;;;;;;;47.28;7.35;;;9.50;99.90;;;;;;4970935;28;20085;-84
2022/01/17 11:22:46;;;;;;;50.30;7.72;;;9.60;99.90;;;;;;4970279;28;20054;-84
2022/01/17 11:25:14;;;;;;;46.80;8.02;;;9.60;99.90;;;;;;4954318;28;20089;-86
2022/01/17 11:27:40;;;;;;;49.83;7.00;;;9.60;99.90;;;;;;4941106;28;20099;-85
2022/01/17 11:30:06;;;;;;;44.10;8.98;;;9.60;99.90;;;;;;4958477;28;20515;-85
2022/01/17 11:32:32;;;;;;;44.92;7.40;;;9.60;99.90;;;;;;4973589;28;20086;-84
2022/01/17 11:34:59;;;;;;;38.85;7.78;;;9.60;99.90;;;;;;4991273;28;20081;-85
2022/01/17 11:37:26;;;;;;;38.13;6.93;;;9.50;99.90;;;;;;4973396;28;20080;-85
2022/01/17 11:39:56;;;;;;;43.95;7.28;;;9.50;99.90;;;;;;4942129;28;20058;-85
2022/01/17 11:42:45;;;;;;;45.08;7.60;;;9.50;99.90;;;;;;4973886;28;20507;-89
2022/01/17 11:45:23;;;;;;;47.42;7.35;;;9.50;99.90;;;;;;4957540;28;20074;-85
2022/01/17 11:47:50;;;;;;;42.65;6.70;;;9.40;99.90;;;;;;4973714;28;20129;-84
2022/01/17 11:50:41;;;;;;;26.23;5.72;;;9.60;99.90;;;;;;4957642;28;20050;-84
2022/01/17 11:53:07;;;;;;;49.38;7.30;;;9.80;99.90;;;;;;4991535;28;20100;-85
2022/01/17 11:55:47;;;;;;;42.97;7.13;;;9.70;99.90;;;;;;4973461;28;20438;-83
2022/01/17 11:58:21;;;;;;;48.67;8.40;;;9.70;99.90;;;;;;4991256;28;20416;-84
2022/01/17 12:00:51;;;;;;;54.38;8.10;;;9.60;99.90;;;;;;4957575;28;20061;-84
2022/01/17 12:03:18;;;;;;;41.88;7.45;;;9.60;99.90;;;;;;4958268;28;20054;-84
2022/01/17 12:05:44;;;;;;;42.67;6.78;;;9.60;99.90;;;;;;4957434;28;20051;-83
2022/01/17 12:08:10;;;;;;;47.28;7.97;;;9.60;99.90;;;;;;4990414;28;20100;-84
2022/01/17 12:10:50;;;;;;;37.38;6.43;;;9.50;99.90;;;;;;4953567;28;20062;-85
2022/01/17 12:13:20;;;;;;;48.28;7.97;;;9.50;99.90;;;;;;4971670;28;20049;-84
2022/01/17 12:16:13;;;;;;;39.22;7.40;;;9.50;99.90;;;;;;4972446;28;20065;-84
2022/01/17 12:19:07;;;;;;;44.53;7.22;;;9.50;99.90;;;;;;4989900;28;20539;-86
2022/01/17 12:21:35;;;;;;;46.73;6.47;;;9.50;99.90;;;;;;4975817;28;20054;-83
2022/01/17 12:24:21;;;;;;;43.58;7.22;;;9.60;99.90;;;;;;4991102;28;20082;-83
2022/01/17 12:27:01;;;;;;;28.65;4.97;;;9.70;99.90;;;;;;4989801;28;20529;-84
2022/01/17 12:29:43;;;;;;;42.50;6.57;;;9.80;99.90;;;;;;4990377;28;20516;-85
2022/01/17 12:32:24;;;;;;;37.28;7.40;;;9.70;99.90;;;;;;4990411;28;20235;-82
2022/01/17 12:35:08;;;;;;;39.40;6.50;;;9.70;99.90;;;;;;4990207;28;20236;-83
2022/01/17 12:37:45;;;;;;;39.53;6.28;;;9.70;99.90;;;;;;4973521;28;20120;-82
2022/01/17 12:40:21;;;;;;;50.28;8.45;;;9.70;99.90;;;;;;4989488;28;20069;-82
2022/01/17 12:43:16;;;;;;;38.72;7.95;;;9.60;99.90;;;;;;4989525;28;20411;-82
2022/01/17 12:45:49;;;;;;;41.75;6.55;;;9.50;99.90;;;;;;5056583;28;20054;-83
2022/01/17 12:48:20;;;;;;;40.83;6.95;;;9.60;99.90;;;;;;5055219;28;20058;-82
2022/01/17 12:50:47;;;;;;;41.13;7.30;;;9.60;99.90;;;;;;5040763;28;20051;-82
2022/01/17 12:53:17;;;;;;;36.97;7.05;;;9.60;99.90;;;;;;5056660;28;20050;-84
2022/01/17 12:55:45;;;;;;;36.05;6.80;;;9.50;99.90;;;;;;4989520;28;20058;-83
2022/01/17 12:58:28;;;;;;;37.42;6.43;;;9.50;99.90;;;;;;5057724;28;20091;-83
2022/01/17 13:00:54;;;;;;;45.95;7.53;;;9.50;99.90;;;;;;5056868;28;20058;-82
2022/01/17 13:03:21;;;;;;;43.65;7.38;;;9.60;99.90;;;;;;5056851;28;20057;-81
2022/01/17 13:05:47;;;;;;;34.90;6.60;;;9.60;99.90;;;;;;4989178;28;20509;-81
2022/01/17 13:08:13;;;;;;;49.33;7.30;;;9.60;99.90;;;;;;5024179;28;20062;-82
2022/01/17 13:10:39;;;;;;;29.50;5.78;;;9.50;99.90;;;;;;4989356;28;20065;-82
2022/01/17 13:13:05;;;;;;;27.58;6.03;;;9.60;99.90;;;;;;5040526;28;20483;-82